createdAt,value
2019-03-19T00:01:51.153Z,100573.86
2019-03-19T00:04:35.804Z,100572.83
2019-03-19T00:07:16.433Z,100581.42
2019-03-19T00:10:06.201Z,100583.70
2019-03-19T00:12:37.867Z,100588.78
2019-03-19T00:15:27.724Z,100599.94
2019-03-19T00:18:10.745Z,100598.88
2019-03-19T00:25:57.505Z,100587.81
2019-03-19T00:28:47.413Z,100594.92
2019-03-19T00:34:27.831Z,100595.92
2019-03-19T00:39:49.124Z,100606.96
2019-03-19T00:42:27.859Z,100606.96
2019-03-19T00:45:13.536Z,100606.39
2019-03-19T00:50:23.806Z,100608.62
2019-03-19T00:53:14.934Z,100606.60
2019-03-19T00:56:08.247Z,100609.13
2019-03-19T00:58:39.943Z,100610.33
2019-03-19T01:01:10.790Z,100595.30
2019-03-19T01:03:40.933Z,100595.77
2019-03-19T01:06:11.755Z,100602.63
2019-03-19T01:09:05.340Z,100611.44
2019-03-19T01:12:11.736Z,100608.81
2019-03-19T01:14:31.765Z,100611.44
2019-03-19T01:17:19.421Z,100613.25
2019-03-19T01:19:37.756Z,100617.46
2019-03-19T01:22:20.694Z,100612.16
2019-03-19T01:24:51.457Z,100612.16
2019-03-19T01:27:41.364Z,100615.19
2019-03-19T01:30:31.954Z,100626.22
2019-03-19T01:33:02.691Z,100617.55
2019-03-19T01:35:52.486Z,100627.75
2019-03-19T01:38:23.326Z,100617.17
2019-03-19T01:40:55.105Z,100612.78
2019-03-19T01:43:44.927Z,100613.73
2019-03-19T01:49:17.286Z,100616.77
2019-03-19T01:58:04.310Z,100619.50
2019-03-19T02:01:07.259Z,100604.44
2019-03-19T02:04:11.992Z,100614.20
2019-03-19T02:07:15.578Z,100618.23
2019-03-19T02:10:07.675Z,100619.10
2019-03-19T02:16:02.350Z,100621.89
2019-03-19T02:19:14.018Z,100634.28
2019-03-19T02:22:23.087Z,100634.28
2019-03-19T02:25:14.231Z,100624.38
2019-03-19T02:31:23.727Z,100638.34
2019-03-19T02:34:29.026Z,100638.23
2019-03-19T02:37:20.965Z,100636.08
2019-03-19T02:40:05.860Z,100637.53
2019-03-19T02:42:45.604Z,100645.03
2019-03-19T02:45:17.299Z,100650.84
2019-03-19T02:48:11.547Z,100648.20
2019-03-19T02:50:53.100Z,100645.77
2019-03-19T02:53:44.891Z,100655.30
2019-03-19T02:59:10.223Z,100656.66
2019-03-19T03:01:42.226Z,100660.87
2019-03-19T03:04:55.330Z,100660.12
2019-03-19T03:07:45.963Z,100656.30
2019-03-19T03:13:29.091Z,100654.53
2019-03-19T03:16:01.464Z,100661.87
2019-03-19T03:21:43.696Z,100657.03
2019-03-19T03:24:14.442Z,100667.86
2019-03-19T03:26:48.350Z,100674.63
2019-03-19T03:29:36.995Z,100676.92
2019-03-19T03:35:18.267Z,100687.62
2019-03-19T03:41:08.753Z,100684.87
2019-03-19T03:43:39.541Z,100687.98
2019-03-19T03:46:43.655Z,100692.58
2019-03-19T03:48:58.745Z,100695.82
2019-03-19T03:57:27.572Z,100707.98
2019-03-19T04:03:08.569Z,100715.55
2019-03-19T04:05:39.267Z,100719.52
2019-03-19T04:08:09.978Z,100723.48
2019-03-19T04:13:30.410Z,100730.20
2019-03-19T04:16:01.155Z,100732.73
2019-03-19T04:18:31.131Z,100732.73
2019-03-19T04:21:20.902Z,100737.73
2019-03-19T04:26:34.217Z,100753.07
2019-03-19T04:29:05.888Z,100752.33
2019-03-19T04:31:36.740Z,100755.09
2019-03-19T04:34:07.550Z,100759.74
2019-03-19T04:36:39.165Z,100751.02
2019-03-19T04:39:10.330Z,100760.97
2019-03-19T04:41:40.159Z,100769.75
2019-03-19T04:44:10.045Z,100772.47
2019-03-19T04:46:39.890Z,100771.22
2019-03-19T04:49:09.660Z,100770.88
2019-03-19T04:51:39.647Z,100773.36
2019-03-19T04:54:11.302Z,100782.99
2019-03-19T04:56:41.511Z,100777.17
2019-03-19T05:02:00.101Z,100781.52
2019-03-19T05:04:29.960Z,100778.43
2019-03-19T05:10:08.607Z,100794.05
2019-03-19T05:12:38.554Z,100787.22
2019-03-19T05:17:59.026Z,100798.59
2019-03-19T05:20:31.216Z,100799.59
2019-03-19T05:23:20.092Z,100811.05
2019-03-19T05:25:50.045Z,100803.52
2019-03-19T05:28:19.952Z,100799.20
2019-03-19T05:30:49.824Z,100807.77
2019-03-19T05:33:38.579Z,100810.50
2019-03-19T05:36:08.457Z,100815.82
2019-03-19T05:38:38.307Z,100816.77
2019-03-19T05:41:08.277Z,100816.37
2019-03-19T05:43:57.186Z,100825.11
2019-03-19T05:46:45.848Z,100831.77
2019-03-19T05:49:15.657Z,100833.81
2019-03-19T05:52:04.592Z,100831.64
2019-03-19T05:54:34.432Z,100833.67
2019-03-19T05:57:23.931Z,100835.88
2019-03-19T05:59:54.108Z,100833.36
2019-03-19T06:02:45.585Z,100836.44
2019-03-19T06:05:15.486Z,100847.23
2019-03-19T06:08:04.231Z,100835.50
2019-03-19T06:10:34.187Z,100850.45
2019-03-19T06:13:04.172Z,100850.67
2019-03-19T06:15:53.112Z,100853.63
2019-03-19T06:18:42.231Z,100857.25
2019-03-19T06:21:12.097Z,100851.66
2019-03-19T06:26:23.766Z,100863.08
2019-03-19T06:28:54.081Z,100863.17
2019-03-19T06:31:43.019Z,100860.76
2019-03-19T06:34:12.955Z,100871.22
2019-03-19T06:37:13.452Z,100873.42
2019-03-19T06:39:52.598Z,100872.05
2019-03-19T06:42:22.582Z,100882.02
2019-03-19T06:47:34.250Z,100895.95
2019-03-19T06:50:04.277Z,100907.64
2019-03-19T06:58:47.189Z,100905.72
2019-03-19T07:01:17.509Z,100918.02
2019-03-19T07:04:07.791Z,100916.53
2019-03-19T07:06:37.739Z,100913.84
2019-03-19T07:09:09.284Z,100910.63
2019-03-19T07:14:42.157Z,100912.16
2019-03-19T07:17:31.151Z,100925.09
2019-03-19T07:20:20.880Z,100931.30
2019-03-19T07:22:50.815Z,100922.41
2019-03-19T07:25:20.817Z,100920.02
2019-03-19T07:28:42.571Z,100912.64
2019-03-19T07:31:30.308Z,100920.20
2019-03-19T07:34:12.004Z,100924.52
2019-03-19T07:37:00.976Z,100913.74
2019-03-19T07:39:50.888Z,100919.62
2019-03-19T07:42:39.863Z,100928.91
2019-03-19T07:45:31.210Z,100931.77
2019-03-19T07:48:20.201Z,100925.39
2019-03-19T07:50:50.176Z,100928.05
2019-03-19T07:53:39.398Z,100924.38
2019-03-19T07:56:09.342Z,100933.68
2019-03-19T07:58:45.073Z,100922.33
2019-03-19T08:02:00.717Z,100931.75
2019-03-19T08:07:44.755Z,100932.94
2019-03-19T08:10:29.160Z,100942.52
2019-03-19T08:16:27.174Z,100951.51
2019-03-19T08:19:10.353Z,100941.87
2019-03-19T08:22:20.095Z,100965.75
2019-03-19T08:25:11.995Z,100970.34
2019-03-19T08:27:42.086Z,100965.55
2019-03-19T08:30:30.291Z,100978.59
2019-03-19T08:32:47.902Z,100977.70
2019-03-19T08:35:57.772Z,100984.02
2019-03-19T08:38:46.843Z,100993.58
2019-03-19T08:44:40.428Z,100995.66
2019-03-19T08:47:22.915Z,100993.97
2019-03-19T08:53:20.979Z,100995.55
2019-03-19T08:59:11.677Z,101002.77
2019-03-19T09:02:22.397Z,101004.10
2019-03-19T09:08:04.052Z,101001.78
2019-03-19T09:13:59.033Z,101018.00
2019-03-19T09:17:05.953Z,101015.50
2019-03-19T09:19:57.494Z,101013.77
2019-03-19T09:22:29.804Z,101013.59
2019-03-19T09:25:17.933Z,101012.11
2019-03-19T09:28:06.548Z,101016.34
2019-03-19T09:30:39.035Z,101024.93
2019-03-19T09:33:09.017Z,101010.80
2019-03-19T09:36:26.814Z,101014.86
2019-03-19T09:38:57.490Z,101021.55
2019-03-19T09:41:27.391Z,101020.60
2019-03-19T09:44:16.288Z,101020.23
2019-03-19T09:53:20.392Z,101010.88
2019-03-19T09:55:51.275Z,101001.91
2019-03-19T09:58:40.857Z,101001.91
2019-03-19T10:01:29.804Z,101008.86
2019-03-19T10:03:59.716Z,101005.83
2019-03-19T10:09:32.458Z,101008.92
2019-03-19T10:15:35.722Z,101019.02
2019-03-19T10:18:26.044Z,101009.05
2019-03-19T10:24:07.596Z,101017.23
2019-03-19T10:26:39.218Z,101013.60
2019-03-19T10:38:44.235Z,101025.14
2019-03-19T10:41:34.357Z,101029.74
2019-03-19T10:44:24.164Z,101026.23
2019-03-19T11:03:42.915Z,101023.55
2019-03-19T11:06:32.375Z,101027.27
2019-03-19T11:12:38.665Z,101023.86
2019-03-19T11:15:31.612Z,101018.33
2019-03-19T11:21:45.000Z,101018.29
2019-03-19T11:24:38.210Z,101020.20
2019-03-19T11:27:27.874Z,101021.27
2019-03-19T11:30:36.831Z,101024.69
2019-03-19T11:36:08.180Z,101022.64
2019-03-19T11:45:03.178Z,101017.85
2019-03-19T11:53:57.042Z,101014.80
2019-03-19T11:56:27.992Z,101010.00
2019-03-19T11:58:59.060Z,101008.23
2019-03-19T12:01:49.003Z,101007.98
2019-03-19T12:08:02.417Z,101006.26
2019-03-19T12:10:33.263Z,101014.53
2019-03-19T12:13:23.199Z,101012.80
2019-03-19T12:22:16.228Z,101013.03
2019-03-19T12:32:12.022Z,101016.28
2019-03-19T12:41:30.871Z,101013.00
2019-03-19T12:44:33.623Z,101011.05
2019-03-19T12:50:44.327Z,101006.14
2019-03-19T12:53:49.091Z,101004.47
2019-03-19T12:56:38.694Z,101005.91
2019-03-19T12:59:19.727Z,100991.70
2019-03-19T13:05:46.487Z,100990.57
2019-03-19T13:08:38.319Z,100992.13
2019-03-19T13:11:09.177Z,100986.69
2019-03-19T13:13:59.423Z,100986.79
2019-03-19T13:16:57.653Z,100988.28
2019-03-19T13:19:47.518Z,100985.27
2019-03-19T13:22:18.316Z,100975.53
2019-03-19T13:25:11.664Z,100983.77
2019-03-19T13:31:07.812Z,100977.72
2019-03-19T13:33:51.296Z,100968.09
2019-03-19T13:37:02.448Z,100985.15
2019-03-19T13:43:21.406Z,100982.84
2019-03-19T13:45:44.649Z,100979.97
2019-03-19T13:51:37.215Z,100982.17
2019-03-19T13:54:40.340Z,100976.84
2019-03-19T13:57:21.116Z,100973.96
2019-03-19T14:00:31.097Z,100978.12
2019-03-19T14:06:12.287Z,100983.14
2019-03-19T14:08:44.300Z,100982.97
2019-03-19T14:12:09.575Z,100975.50
2019-03-19T14:14:36.501Z,100975.50
2019-03-19T14:17:09.913Z,100985.72
2019-03-19T14:20:00.670Z,100980.31
2019-03-19T14:26:01.996Z,100972.42
2019-03-19T14:32:33.759Z,100970.39
2019-03-19T14:38:58.059Z,100976.91
2019-03-19T14:41:29.776Z,100972.41
2019-03-19T14:44:21.830Z,100984.87
2019-03-19T14:53:45.970Z,100974.90
2019-03-19T14:56:55.892Z,100978.08
2019-03-19T15:05:47.582Z,100984.61
2019-03-19T15:09:21.855Z,100990.64
2019-03-19T15:11:43.294Z,100983.96
2019-03-19T15:14:51.931Z,100985.31
2019-03-19T15:17:39.656Z,100982.08
2019-03-19T15:20:17.792Z,100987.72
2019-03-19T15:26:13.744Z,100989.92
2019-03-19T15:29:24.140Z,100981.97
2019-03-19T15:32:17.756Z,100991.11
2019-03-19T15:38:10.694Z,100988.42
2019-03-19T15:49:39.029Z,100988.36
2019-03-19T15:52:31.207Z,101002.47
2019-03-19T15:55:22.149Z,100990.27
2019-03-19T15:57:58.253Z,101010.89
2019-03-19T16:01:12.427Z,101010.89
2019-03-19T16:03:54.498Z,101005.16
2019-03-19T16:06:51.820Z,101010.61
2019-03-19T16:09:23.612Z,101016.72
2019-03-19T16:11:55.534Z,101012.08
2019-03-19T16:14:46.354Z,101014.19
2019-03-19T16:17:39.987Z,101025.38
2019-03-19T16:20:30.819Z,101024.44
2019-03-19T16:23:20.692Z,101024.44
2019-03-19T16:26:13.556Z,101020.02
2019-03-19T16:28:46.014Z,101034.58
2019-03-19T16:34:26.182Z,101032.10
2019-03-19T16:37:16.255Z,101043.59
2019-03-19T16:43:01.575Z,101050.06
2019-03-19T16:49:04.186Z,101056.06
2019-03-19T16:51:35.168Z,101048.19
2019-03-19T16:59:59.610Z,101069.85
2019-03-19T17:02:30.598Z,101063.25
2019-03-19T17:05:01.553Z,101066.31
2019-03-19T17:07:55.183Z,101075.88
2019-03-19T17:10:46.076Z,101077.53
2019-03-19T17:16:39.219Z,101074.63
2019-03-19T17:29:54.397Z,101096.47
2019-03-19T17:35:40.006Z,101103.07
2019-03-19T17:46:09.835Z,101106.92
2019-03-19T17:48:44.727Z,101119.83
2019-03-19T17:51:37.955Z,101116.89
2019-03-19T17:54:14.676Z,101120.67
2019-03-19T17:57:25.881Z,101120.63
2019-03-19T18:09:59.696Z,101141.28
2019-03-19T18:12:50.555Z,101141.02
2019-03-19T18:16:11.566Z,101146.14
2019-03-19T18:19:08.439Z,101154.67
2019-03-19T18:25:20.538Z,101154.33
2019-03-19T18:27:52.370Z,101154.69
2019-03-19T18:30:43.332Z,101149.18
2019-03-19T18:36:09.721Z,101167.95
2019-03-19T18:38:59.739Z,101165.60
2019-03-19T18:41:31.776Z,101164.36
2019-03-19T18:44:04.990Z,101171.03
2019-03-19T18:46:57.166Z,101175.58
2019-03-19T18:49:47.163Z,101173.36
2019-03-19T18:52:21.482Z,101178.59
2019-03-19T18:58:14.719Z,101182.72
2019-03-19T19:03:52.218Z,101170.70
2019-03-19T19:06:24.032Z,101183.84
2019-03-19T19:08:56.705Z,101188.50
2019-03-19T19:14:58.492Z,101199.48
2019-03-19T19:20:31.499Z,101201.46
2019-03-19T19:23:03.316Z,101201.99
2019-03-19T19:25:54.201Z,101197.09
2019-03-19T19:28:44.248Z,101204.54
2019-03-19T19:31:35.278Z,101205.27
2019-03-19T19:34:38.238Z,101208.86
2019-03-19T19:40:51.502Z,101215.80
2019-03-19T19:46:22.876Z,101217.84
2019-03-19T19:49:13.202Z,101217.70
2019-03-19T19:52:05.331Z,101217.03
2019-03-19T19:54:57.931Z,101230.70
2019-03-19T19:57:32.217Z,101213.17
2019-03-19T20:00:36.205Z,101225.80
2019-03-19T20:06:17.517Z,101230.67
2019-03-19T20:08:47.893Z,101237.60
2019-03-19T20:11:31.798Z,101238.38
2019-03-19T20:14:22.555Z,101241.25
2019-03-19T20:23:30.064Z,101247.47
2019-03-19T20:29:03.042Z,101254.81
2019-03-19T20:31:35.689Z,101254.33
2019-03-19T20:34:07.505Z,101258.31
2019-03-19T20:40:10.411Z,101272.53
2019-03-19T20:45:45.121Z,101267.50
2019-03-19T20:49:00.445Z,101271.69
2019-03-19T20:51:50.571Z,101267.98
2019-03-19T20:58:04.914Z,101278.42
2019-03-19T21:03:23.035Z,101277.45
2019-03-19T21:09:22.645Z,101293.33
2019-03-19T21:12:24.180Z,101299.59
2019-03-19T21:21:45.960Z,101308.08
2019-03-19T21:24:23.009Z,101313.22
2019-03-19T21:27:17.660Z,101307.59
2019-03-19T21:30:05.344Z,101313.66
2019-03-19T21:33:17.586Z,101310.19
2019-03-19T21:36:01.469Z,101316.80
2019-03-19T21:44:44.945Z,101314.42
2019-03-19T21:47:16.163Z,101316.14
2019-03-19T21:49:48.086Z,101313.44
2019-03-19T21:52:38.967Z,101313.44
2019-03-19T21:55:29.558Z,101321.25
2019-03-19T21:58:19.558Z,101319.34
2019-03-19T22:00:51.273Z,101321.00
2019-03-19T22:03:41.842Z,101319.97
2019-03-19T22:06:52.909Z,101323.52
2019-03-19T22:10:04.442Z,101320.09
2019-03-19T22:12:35.328Z,101326.66
2019-03-19T22:15:39.706Z,101324.33
2019-03-19T22:18:43.125Z,101327.59
2019-03-19T22:21:33.103Z,101328.66
2019-03-19T22:27:14.432Z,101325.25
2019-03-19T22:30:27.204Z,101344.72
2019-03-19T22:33:39.245Z,101341.11
2019-03-19T22:36:12.114Z,101346.30
2019-03-19T22:38:45.889Z,101321.03
2019-03-19T22:41:48.539Z,101347.58
2019-03-19T22:44:40.779Z,101356.83
2019-03-19T22:47:31.577Z,101359.00
2019-03-19T22:50:40.278Z,101364.19
2019-03-19T22:53:11.223Z,101353.95
2019-03-19T22:55:44.531Z,101370.73
2019-03-19T22:58:15.505Z,101371.66
2019-03-19T23:04:00.531Z,101380.55
2019-03-19T23:13:25.136Z,101379.22
2019-03-19T23:16:15.152Z,101381.85
2019-03-19T23:19:05.780Z,101384.19
2019-03-19T23:21:56.609Z,101383.86
2019-03-19T23:24:27.786Z,101381.80
2019-03-19T23:27:18.760Z,101391.81
2019-03-19T23:32:59.303Z,101395.11
2019-03-19T23:35:49.334Z,101393.53
2019-03-19T23:38:40.338Z,101396.91
2019-03-19T23:41:11.199Z,101400.19
2019-03-19T23:43:42.987Z,101395.42
2019-03-19T23:49:39.903Z,101402.41
2019-03-19T23:56:25.880Z,101398.06
2019-03-19T23:58:42.484Z,101406.10
